Time;durP1;ratioP1;P1;durP2;ratioP2;P2;SDS_P1;SDS_P2;PMS_P1;PMS_P2;Temp;Humidity;BMP_temperature;BMP_pressure;BME280_temperature;BME280_humidity;BME280_pressure;Samples;Min_cycle;Max_cycle;Signal;HPM_P1;HPM_P2
2021/09/30 00:01:04;;;;;;;1.30;0.90;;;23.60;55.00;;;;;;6266433;22;20396;-84
2021/09/30 00:03:30;;;;;;;1.20;0.80;;;23.50;55.00;;;;;;6267200;22;20205;-84
2021/09/30 00:09:18;;;;;;;1.20;1.00;;;23.60;55.00;;;;;;6294227;22;20136;-84
2021/09/30 00:11:48;;;;;;;1.47;0.83;;;23.50;55.00;;;;;;6267150;22;20432;-84
2021/09/30 00:14:40;;;;;;;1.63;1.03;;;23.50;55.00;;;;;;6267886;22;20146;-84
2021/09/30 00:17:24;;;;;;;1.10;0.83;;;23.50;55.00;;;;;;6266763;22;20463;-84
2021/09/30 00:33:48;;;;;;;1.43;0.90;;;23.50;55.10;;;;;;6293431;22;20359;-84
2021/09/30 00:41:49;;;;;;;2.17;1.10;;;23.50;55.10;;;;;;6292840;22;20439;-84
2021/09/30 02:19:10;;;;;;;1.93;0.90;;;23.40;55.20;;;;;;6293158;22;20352;-84
2021/09/30 03:00:08;;;;;;;1.20;0.70;;;23.40;55.20;;;;;;6292714;22;20407;-83
2021/09/30 03:02:37;;;;;;;0.90;0.70;;;23.40;55.20;;;;;;6293920;22;20376;-83
2021/09/30 03:05:04;;;;;;;1.10;0.80;;;23.40;55.20;;;;;;6268738;22;20384;-83
2021/09/30 03:07:31;;;;;;;1.50;0.90;;;23.40;55.20;;;;;;6268540;22;20380;-83
2021/09/30 03:09:59;;;;;;;1.30;0.83;;;23.50;55.20;;;;;;6296289;22;20376;-83
2021/09/30 03:12:29;;;;;;;1.20;0.80;;;23.40;55.10;;;;;;6268846;22;20424;-83
2021/09/30 03:17:45;;;;;;;0.87;0.63;;;23.40;55.10;;;;;;6296453;22;20361;-83
2021/09/30 03:20:38;;;;;;;0.90;0.70;;;23.40;55.10;;;;;;6295728;22;20348;-83
2021/09/30 03:23:11;;;;;;;1.40;0.90;;;23.40;55.10;;;;;;6268352;22;20376;-83
2021/09/30 03:25:38;;;;;;;0.93;0.70;;;23.50;55.20;;;;;;6296072;22;20424;-83
2021/09/30 03:28:05;;;;;;;1.30;0.87;;;23.40;55.10;;;;;;6267082;22;20391;-83
2021/09/30 03:30:32;;;;;;;1.37;0.93;;;23.50;55.20;;;;;;6269128;22;20373;-83
2021/09/30 03:33:06;;;;;;;0.80;0.70;;;23.40;55.10;;;;;;6295560;22;20368;-83
2021/09/30 03:35:32;;;;;;;0.90;0.70;;;23.40;55.10;;;;;;6268432;22;20375;-83
2021/09/30 03:38:02;;;;;;;1.20;0.97;;;23.40;55.10;;;;;;6268709;22;20384;-83
2021/09/30 03:40:32;;;;;;;1.40;0.80;;;23.50;55.20;;;;;;6266135;22;20369;-83
2021/09/30 03:42:58;;;;;;;1.53;0.90;;;23.40;55.10;;;;;;6267197;22;20381;-83
2021/09/30 03:45:24;;;;;;;1.00;0.70;;;23.40;55.10;;;;;;6294273;22;20376;-82
2021/09/30 03:47:51;;;;;;;1.03;0.90;;;23.40;55.10;;;;;;6268404;22;20373;-82
2021/09/30 03:50:25;;;;;;;1.00;0.70;;;23.40;55.10;;;;;;6270252;22;20184;-81
2021/09/30 04:01:29;;;;;;;1.00;0.80;;;23.40;55.10;;;;;;6297601;22;20406;-83
2021/09/30 04:03:54;;;;;;;1.43;0.80;;;23.40;55.10;;;;;;6269044;22;20392;-83
2021/09/30 04:06:20;;;;;;;1.10;0.80;;;23.40;55.10;;;;;;6270208;22;20377;-83
2021/09/30 04:08:48;;;;;;;0.90;0.70;;;23.40;55.10;;;;;;6297149;22;20180;-83
2021/09/30 04:11:18;;;;;;;1.00;0.73;;;23.40;55.10;;;;;;6268154;22;20491;-83
2021/09/30 04:13:47;;;;;;;0.90;0.70;;;23.40;55.60;;;;;;6295398;22;20729;-83
2021/09/30 04:16:14;;;;;;;1.83;0.90;;;23.40;55.10;;;;;;6242553;22;20377;-83
2021/09/30 04:18:40;;;;;;;1.57;0.80;;;23.40;55.00;;;;;;6267209;22;20391;-83
2021/09/30 04:21:08;;;;;;;1.20;0.90;;;23.40;55.10;;;;;;6293953;22;20376;-83
2021/09/30 04:23:34;;;;;;;1.13;0.83;;;23.40;55.10;;;;;;6294904;22;20149;-83
2021/09/30 04:26:01;;;;;;;1.07;0.70;;;23.40;55.10;;;;;;6295492;22;20377;-84
2021/09/30 04:28:27;;;;;;;1.00;0.80;;;23.40;55.00;;;;;;6267262;22;20776;-83
2021/09/30 04:30:52;;;;;;;1.50;0.80;;;23.40;55.00;;;;;;6268125;22;20431;-82
2021/09/30 04:33:22;;;;;;;1.33;0.97;;;23.40;55.00;;;;;;6296067;22;20175;-83
2021/09/30 04:35:49;;;;;;;1.00;0.77;;;23.40;55.10;;;;;;6269490;22;20145;-82
2021/09/30 04:38:15;;;;;;;1.57;0.90;;;23.40;55.00;;;;;;6271238;22;20383;-83
2021/09/30 04:40:43;;;;;;;1.20;0.70;;;23.40;55.10;;;;;;6270156;22;20437;-83
2021/09/30 04:43:12;;;;;;;2.60;0.80;;;23.40;55.00;;;;;;6298957;22;20376;-83
2021/09/30 04:45:38;;;;;;;1.83;1.00;;;23.40;55.00;;;;;;6272846;22;20904;-83
2021/09/30 04:48:04;;;;;;;1.60;1.03;;;23.40;55.00;;;;;;6271337;22;20380;-82
2021/09/30 04:50:30;;;;;;;1.87;0.83;;;23.40;55.00;;;;;;6297834;22;20145;-83
2021/09/30 04:53:01;;;;;;;1.40;0.87;;;23.40;55.00;;;;;;6272277;22;20427;-83
2021/09/30 04:55:27;;;;;;;1.83;0.90;;;23.40;55.00;;;;;;6296543;22;20186;-82
2021/09/30 04:57:57;;;;;;;1.40;1.00;;;23.40;55.00;;;;;;6265506;22;20380;-82
2021/09/30 05:00:25;;;;;;;2.40;1.07;;;23.40;55.00;;;;;;6293331;22;20164;-83
2021/09/30 05:02:51;;;;;;;1.03;0.80;;;23.40;55.00;;;;;;6266352;22;20377;-82
2021/09/30 05:05:19;;;;;;;3.53;1.70;;;23.40;55.00;;;;;;6267712;22;20387;-82
2021/09/30 05:07:47;;;;;;;1.17;0.90;;;23.40;55.00;;;;;;6271182;22;20156;-83
2021/09/30 05:10:22;;;;;;;1.20;0.90;;;23.40;55.00;;;;;;6247992;22;20408;-83
2021/09/30 05:13:03;;;;;;;1.30;1.00;;;23.40;55.00;;;;;;6300157;22;20380;-82
2021/09/30 05:18:56;;;;;;;1.30;0.80;;;23.40;54.80;;;;;;6237936;23;20393;-82
2021/09/30 05:21:28;;;;;;;1.53;0.90;;;23.40;54.90;;;;;;6236414;23;20392;-82
2021/09/30 05:23:58;;;;;;;1.40;0.70;;;23.40;54.90;;;;;;6212550;23;20382;-82
2021/09/30 05:26:39;;;;;;;1.37;0.80;;;23.40;54.90;;;;;;6230751;23;20434;-82
2021/09/30 05:29:14;;;;;;;1.47;0.83;;;23.40;54.90;;;;;;6190539;23;20517;-82
2021/09/30 05:31:42;;;;;;;1.00;0.73;;;23.40;54.90;;;;;;6212975;23;20402;-84
2021/09/30 05:34:07;;;;;;;1.93;0.90;;;23.40;54.90;;;;;;6236238;23;20366;-84
2021/09/30 05:36:36;;;;;;;1.00;0.73;;;23.40;54.90;;;;;;6210830;23;20713;-84
2021/09/30 05:39:03;;;;;;;1.53;0.90;;;23.40;54.90;;;;;;6210357;23;20190;-84
2021/09/30 05:41:31;;;;;;;1.10;0.80;;;23.40;54.90;;;;;;6211436;23;20426;-85
2021/09/30 05:44:08;;;;;;;1.33;0.80;;;23.40;54.90;;;;;;6186696;23;20390;-84
2021/09/30 05:46:41;;;;;;;1.40;1.00;;;23.40;54.90;;;;;;6258786;22;20443;-85
2021/09/30 05:49:07;;;;;;;0.97;0.70;;;23.40;54.90;;;;;;6298934;22;20388;-85
2021/09/30 05:51:33;;;;;;;1.20;0.90;;;23.40;54.80;;;;;;6271754;22;20419;-84
2021/09/30 05:54:04;;;;;;;1.43;0.80;;;23.40;54.90;;;;;;6299602;22;20371;-84
2021/09/30 05:56:30;;;;;;;1.13;0.87;;;23.40;54.80;;;;;;6272748;22;20193;-84
2021/09/30 05:58:59;;;;;;;0.93;0.70;;;23.40;54.80;;;;;;6272189;22;20411;-84
2021/09/30 06:13:03;;;;;;;1.10;0.83;;;23.40;54.90;;;;;;6299308;22;20427;-84
2021/09/30 06:15:40;;;;;;;1.13;0.90;;;23.40;54.90;;;;;;6297362;22;20372;-83
2021/09/30 06:18:07;;;;;;;1.03;0.77;;;23.40;54.90;;;;;;6301110;22;20370;-83
2021/09/30 06:20:36;;;;;;;1.07;0.77;;;23.40;54.90;;;;;;6300259;22;20436;-83
2021/09/30 06:23:04;;;;;;;0.90;0.70;;;23.40;54.90;;;;;;6273665;22;20384;-83
2021/09/30 06:25:35;;;;;;;1.30;1.00;;;23.40;54.80;;;;;;6273195;22;20434;-83
2021/09/30 06:28:03;;;;;;;1.63;0.70;;;23.50;54.90;;;;;;6298281;22;20369;-83
2021/09/30 06:30:30;;;;;;;1.87;1.07;;;23.50;54.90;;;;;;6272515;22;20375;-83
2021/09/30 06:32:57;;;;;;;1.40;0.80;;;23.50;54.90;;;;;;6298693;22;20372;-83
2021/09/30 06:35:25;;;;;;;0.90;0.60;;;23.50;54.90;;;;;;6271786;22;20376;-84
2021/09/30 06:37:54;;;;;;;1.20;0.77;;;23.50;54.80;;;;;;6270614;22;20372;-84
2021/09/30 06:40:26;;;;;;;0.90;0.77;;;23.50;54.90;;;;;;6271531;22;20407;-84
2021/09/30 06:43:04;;;;;;;0.90;0.70;;;23.50;54.80;;;;;;6298387;22;20460;-83
2021/09/30 06:45:32;;;;;;;1.30;0.80;;;23.50;54.80;;;;;;6248709;22;20380;-84
2021/09/30 06:47:58;;;;;;;0.90;0.77;;;23.50;54.80;;;;;;6299488;22;20399;-84
2021/09/30 06:50:27;;;;;;;1.20;1.10;;;23.50;54.80;;;;;;6299217;22;20408;-84
2021/09/30 06:53:07;;;;;;;1.10;1.00;;;23.50;54.80;;;;;;6247114;22;20386;-83
2021/09/30 06:56:08;;;;;;;2.03;0.90;;;23.50;54.80;;;;;;6272478;22;20381;-83
2021/09/30 06:58:42;;;;;;;0.90;0.70;;;23.50;54.80;;;;;;6265960;22;20376;-83
2021/09/30 07:01:11;;;;;;;1.90;1.07;;;23.50;54.80;;;;;;6273190;22;20369;-83
2021/09/30 07:03:51;;;;;;;1.47;1.17;;;23.50;54.80;;;;;;6299949;22;20378;-84
2021/09/30 07:06:17;;;;;;;3.70;1.40;;;23.50;54.60;;;;;;6273839;22;20386;-85
2021/09/30 07:08:43;;;;;;;1.60;1.00;;;23.50;54.50;;;;;;6273190;22;20368;-83
2021/09/30 07:11:16;;;;;;;3.00;1.30;;;23.50;54.30;;;;;;6297127;22;20446;-84
2021/09/30 07:13:43;;;;;;;1.30;1.10;;;23.40;54.10;;;;;;6271603;22;20380;-84
2021/09/30 07:16:12;;;;;;;2.50;1.20;;;23.40;54.00;;;;;;6300677;22;20396;-83
2021/09/30 07:18:40;;;;;;;3.17;1.27;;;23.40;53.80;;;;;;6271264;22;20385;-84
2021/09/30 07:21:09;;;;;;;1.50;1.20;;;23.40;53.60;;;;;;6272945;22;20380;-83
2021/09/30 07:23:44;;;;;;;1.73;1.30;;;23.40;53.40;;;;;;6296972;22;20367;-82
2021/09/30 07:26:13;;;;;;;2.50;1.50;;;23.40;53.20;;;;;;6269868;22;20384;-83
2021/09/30 07:28:39;;;;;;;3.27;1.30;;;23.40;53.10;;;;;;6269935;22;20408;-83
2021/09/30 07:31:08;;;;;;;1.50;1.40;;;23.30;52.90;;;;;;6270709;22;20411;-83
2021/09/30 07:33:36;;;;;;;2.40;1.37;;;23.30;52.80;;;;;;6299395;22;20395;-83
2021/09/30 07:36:04;;;;;;;3.70;1.50;;;23.30;52.70;;;;;;6296859;22;20361;-83
2021/09/30 07:38:30;;;;;;;3.20;1.60;;;23.20;52.40;;;;;;6245574;22;20411;-82
2021/09/30 07:40:58;;;;;;;2.23;1.20;;;23.20;52.30;;;;;;6271713;22;20384;-83
2021/09/30 07:43:24;;;;;;;1.87;1.53;;;23.20;52.20;;;;;;6269628;22;20153;-83
2021/09/30 07:45:53;;;;;;;2.23;1.77;;;23.10;52.10;;;;;;6244731;22;20408;-83
2021/09/30 07:48:22;;;;;;;2.87;1.57;;;23.10;51.90;;;;;;6271033;22;20172;-82
2021/09/30 07:50:48;;;;;;;2.00;1.33;;;23.10;51.90;;;;;;6268879;22;20440;-83
2021/09/30 07:53:23;;;;;;;2.43;1.40;;;23.10;51.80;;;;;;6267560;22;20400;-82
2021/09/30 07:56:18;;;;;;;2.13;1.40;;;23.10;51.70;;;;;;6268386;22;20426;-82
2021/09/30 07:58:46;;;;;;;1.47;1.20;;;23.10;51.60;;;;;;6267280;22;20436;-82
2021/09/30 08:01:18;;;;;;;1.63;1.20;;;23.00;51.60;;;;;;6295514;22;20396;-83
2021/09/30 08:03:49;;;;;;;1.70;1.33;;;23.00;51.80;;;;;;6268038;22;20385;-82
2021/09/30 08:06:18;;;;;;;1.53;1.20;;;23.00;51.80;;;;;;6294779;22;20368;-82
2021/09/30 08:08:45;;;;;;;1.30;1.20;;;23.00;52.00;;;;;;6267773;22;20381;-83
2021/09/30 08:11:20;;;;;;;1.37;0.90;;;23.00;52.10;;;;;;6294149;22;20449;-83
2021/09/30 08:13:46;;;;;;;4.90;1.53;;;23.00;52.20;;;;;;6267929;22;20380;-84
2021/09/30 08:16:13;;;;;;;1.27;0.90;;;23.00;52.30;;;;;;6293663;22;20379;-82
2021/09/30 08:18:45;;;;;;;1.43;1.20;;;23.00;52.40;;;;;;6267376;22;20180;-83
2021/09/30 08:21:13;;;;;;;2.27;1.27;;;23.00;52.40;;;;;;6267150;22;20459;-83
2021/09/30 08:23:43;;;;;;;5.77;1.70;;;23.00;53.10;;;;;;6242351;22;20381;-82
2021/09/30 08:26:13;;;;;;;4.70;2.67;;;23.00;52.50;;;;;;6267104;22;20376;-83
2021/09/30 08:28:39;;;;;;;4.03;1.57;;;23.10;52.60;;;;;;6267652;22;20384;-83
2021/09/30 08:31:06;;;;;;;3.33;1.57;;;23.00;52.60;;;;;;6270072;22;20422;-83
2021/09/30 08:33:32;;;;;;;2.20;1.20;;;23.00;52.70;;;;;;6297807;22;20369;-83
2021/09/30 08:36:00;;;;;;;5.60;2.00;;;23.10;52.80;;;;;;6295213;22;20392;-83
2021/09/30 08:38:28;;;;;;;2.37;1.40;;;23.10;52.80;;;;;;6297423;22;20377;-83
2021/09/30 08:40:57;;;;;;;3.80;1.57;;;23.10;52.80;;;;;;6297159;22;20369;-83
2021/09/30 08:43:23;;;;;;;3.30;1.43;;;23.10;52.90;;;;;;6294872;22;20380;-82
2021/09/30 08:45:48;;;;;;;5.83;1.70;;;23.10;52.90;;;;;;6297310;22;20412;-83
2021/09/30 08:48:45;;;;;;;6.13;2.53;;;23.10;52.90;;;;;;6296806;22;20219;-83
2021/09/30 08:51:13;;;;;;;2.33;1.50;;;23.10;53.40;;;;;;6242964;22;20184;-82
2021/09/30 08:53:43;;;;;;;6.03;1.90;;;23.10;53.00;;;;;;6267067;22;20372;-83
2021/09/30 08:56:14;;;;;;;4.53;2.10;;;23.10;53.00;;;;;;6267385;22;20443;-83
2021/09/30 08:58:43;;;;;;;5.17;2.10;;;23.10;53.00;;;;;;6293092;22;20394;-82
2021/09/30 09:01:11;;;;;;;3.30;1.70;;;23.10;53.00;;;;;;6265904;22;20388;-83
2021/09/30 09:03:41;;;;;;;3.30;1.57;;;23.10;53.00;;;;;;6291207;22;20376;-83
2021/09/30 09:06:09;;;;;;;2.57;1.50;;;23.10;53.00;;;;;;6263687;22;20441;-82
2021/09/30 09:08:35;;;;;;;2.40;1.53;;;23.10;53.10;;;;;;6263425;22;20380;-82
2021/09/30 09:11:11;;;;;;;1.90;1.20;;;23.10;53.10;;;;;;6267793;22;20474;-83
2021/09/30 09:13:38;;;;;;;3.20;1.30;;;23.20;53.20;;;;;;6294492;22;20374;-82
2021/09/30 09:16:07;;;;;;;3.10;1.57;;;23.10;53.10;;;;;;6293766;22;20369;-83
2021/09/30 09:21:54;;;;;;;3.10;1.50;;;23.20;53.20;;;;;;6293652;22;20434;-83
2021/09/30 09:24:29;;;;;;;3.80;2.47;;;23.10;53.20;;;;;;6293648;22;20372;-83
2021/09/30 09:27:01;;;;;;;4.13;1.83;;;23.20;53.30;;;;;;6293909;22;20159;-82
2021/09/30 09:29:31;;;;;;;3.03;1.80;;;23.10;53.20;;;;;;6295618;22;20349;-83
2021/09/30 09:32:05;;;;;;;4.40;1.67;;;23.10;53.30;;;;;;6270269;22;20408;-83
2021/09/30 09:34:39;;;;;;;3.03;1.30;;;23.20;53.30;;;;;;6268282;22;20388;-83
2021/09/30 09:37:34;;;;;;;5.03;1.77;;;23.20;53.30;;;;;;6268257;22;20387;-82
2021/09/30 09:40:16;;;;;;;2.27;1.40;;;23.20;53.30;;;;;;6267181;22;20850;-82
2021/09/30 09:42:42;;;;;;;2.60;1.37;;;23.20;53.30;;;;;;6267771;22;20368;-84
2021/09/30 09:45:14;;;;;;;5.50;1.60;;;23.10;53.30;;;;;;6267471;22;20392;-84
2021/09/30 09:48:19;;;;;;;3.47;1.30;;;23.10;53.30;;;;;;6294465;22;20134;-84
2021/09/30 09:51:02;;;;;;;4.13;1.40;;;23.20;53.30;;;;;;6294623;22;20388;-84
2021/09/30 09:53:42;;;;;;;4.20;1.40;;;23.20;53.40;;;;;;6267051;22;20364;-84
2021/09/30 09:56:15;;;;;;;3.80;1.30;;;23.20;53.50;;;;;;6267628;22;20368;-83
2021/09/30 09:58:53;;;;;;;2.00;1.30;;;23.20;53.50;;;;;;6267467;22;20368;-84
2021/09/30 10:01:23;;;;;;;3.33;1.37;;;23.20;53.50;;;;;;6267236;22;20360;-83
2021/09/30 10:03:58;;;;;;;2.30;1.27;;;23.20;53.50;;;;;;6265714;22;20728;-82
2021/09/30 10:06:25;;;;;;;5.20;1.60;;;23.20;53.50;;;;;;6263822;22;20375;-82
2021/09/30 10:08:54;;;;;;;3.30;1.77;;;23.20;53.60;;;;;;6291430;22;20494;-82
2021/09/30 10:11:20;;;;;;;3.20;1.70;;;23.20;53.60;;;;;;6264241;22;20456;-82
2021/09/30 10:13:46;;;;;;;2.53;1.30;;;23.30;53.60;;;;;;6264108;22;20384;-82
2021/09/30 10:16:16;;;;;;;2.03;1.30;;;23.30;53.70;;;;;;6264572;22;20386;-82
2021/09/30 10:18:42;;;;;;;1.70;1.30;;;23.30;53.60;;;;;;6292269;22;20403;-82
2021/09/30 10:21:07;;;;;;;1.90;1.13;;;23.30;53.60;;;;;;6265459;22;20677;-82
2021/09/30 10:23:36;;;;;;;3.20;1.40;;;23.30;53.60;;;;;;6265376;22;20502;-82
2021/09/30 10:26:34;;;;;;;2.20;1.60;;;23.30;53.60;;;;;;6265510;22;20543;-82
2021/09/30 10:29:08;;;;;;;2.07;1.10;;;23.30;53.50;;;;;;6292486;22;20690;-82
2021/09/30 10:31:55;;;;;;;1.73;1.20;;;23.30;53.60;;;;;;6242075;22;20468;-82
2021/09/30 10:34:32;;;;;;;1.90;1.20;;;23.30;53.60;;;;;;6241615;22;20389;-83
2021/09/30 10:37:47;;;;;;;2.50;1.10;;;23.30;53.60;;;;;;6269351;22;20382;-84
2021/09/30 10:40:17;;;;;;;3.37;1.40;;;23.40;53.70;;;;;;6118493;23;20388;-83
2021/09/30 10:42:53;;;;;;;1.40;1.10;;;23.30;53.70;;;;;;6120267;23;20387;-83
2021/09/30 10:45:28;;;;;;;8.50;1.57;;;23.30;53.70;;;;;;6119894;23;20372;-83
2021/09/30 10:48:26;;;;;;;2.63;1.60;;;23.30;53.70;;;;;;6144134;23;20436;-84
2021/09/30 10:51:08;;;;;;;2.27;1.50;;;23.40;53.80;;;;;;6141681;23;20935;-83
2021/09/30 10:54:08;;;;;;;2.33;1.10;;;23.40;53.80;;;;;;6094277;23;20381;-84
2021/09/30 10:56:39;;;;;;;2.27;1.53;;;23.40;53.80;;;;;;6031152;23;20443;-84
2021/09/30 10:59:13;;;;;;;3.10;1.23;;;23.40;53.80;;;;;;6031730;23;20384;-83
2021/09/30 11:01:52;;;;;;;3.67;1.63;;;23.40;53.80;;;;;;6031979;23;20424;-83
2021/09/30 11:04:22;;;;;;;2.07;1.43;;;23.40;53.80;;;;;;6031674;23;20391;-84
2021/09/30 11:07:16;;;;;;;3.00;1.67;;;23.40;53.80;;;;;;6032103;23;20390;-84
2021/09/30 11:10:00;;;;;;;2.53;1.40;;;23.40;53.80;;;;;;6032340;23;20395;-84
2021/09/30 11:12:26;;;;;;;1.50;1.20;;;23.40;53.80;;;;;;6033022;23;20442;-84
2021/09/30 11:14:55;;;;;;;1.43;1.23;;;23.40;53.80;;;;;;6054992;23;20407;-84
2021/09/30 11:17:35;;;;;;;2.13;1.30;;;23.40;53.80;;;;;;6099061;23;20276;-84
2021/09/30 11:20:37;;;;;;;2.07;0.90;;;23.40;53.80;;;;;;6147109;23;20388;-84
2021/09/30 11:26:10;;;;;;;2.27;1.10;;;23.40;53.80;;;;;;6160346;23;20769;-83
2021/09/30 11:28:37;;;;;;;3.50;1.40;;;23.40;53.90;;;;;;6171926;23;20388;-83
2021/09/30 11:34:36;;;;;;;1.23;1.00;;;23.40;53.80;;;;;;6273155;22;20363;-83
2021/09/30 11:37:17;;;;;;;1.97;1.30;;;23.40;53.90;;;;;;6295313;22;20732;-83
2021/09/30 11:39:49;;;;;;;1.67;1.10;;;23.40;53.90;;;;;;6268278;22;20376;-83
2021/09/30 11:42:19;;;;;;;1.70;1.00;;;23.40;54.00;;;;;;6268053;22;20383;-83
2021/09/30 11:45:07;;;;;;;2.00;1.27;;;23.40;53.90;;;;;;6294045;22;20373;-83
2021/09/30 11:47:43;;;;;;;1.67;1.10;;;23.40;53.90;;;;;;6294045;22;20721;-83
2021/09/30 11:50:33;;;;;;;2.50;1.10;;;23.40;53.90;;;;;;6267014;22;20403;-83
2021/09/30 11:53:10;;;;;;;2.37;1.30;;;23.40;53.90;;;;;;6297196;22;20360;-84
2021/09/30 11:55:53;;;;;;;2.10;1.30;;;23.40;54.00;;;;;;6271465;22;20368;-83
2021/09/30 11:58:21;;;;;;;1.83;1.30;;;23.40;54.00;;;;;;6269409;22;20456;-84
2021/09/30 12:00:47;;;;;;;3.30;1.40;;;23.40;54.00;;;;;;6269869;22;20369;-84
2021/09/30 12:03:13;;;;;;;2.57;1.20;;;23.40;54.00;;;;;;6269643;22;20455;-85
2021/09/30 12:05:45;;;;;;;2.13;1.60;;;23.40;54.00;;;;;;6296214;22;20361;-85
2021/09/30 12:08:27;;;;;;;2.80;1.30;;;23.40;54.00;;;;;;6269638;22;20133;-85
2021/09/30 12:11:04;;;;;;;1.93;1.37;;;23.50;54.00;;;;;;6296476;22;20424;-85
2021/09/30 12:13:36;;;;;;;2.13;1.20;;;23.40;53.90;;;;;;6268331;22;20384;-85
2021/09/30 12:16:17;;;;;;;1.97;1.20;;;23.40;54.00;;;;;;6268802;22;20434;-85
2021/09/30 12:19:06;;;;;;;2.90;1.13;;;23.50;54.00;;;;;;6269349;22;20463;-84
2021/09/30 12:21:40;;;;;;;2.57;1.20;;;23.50;54.60;;;;;;6268582;22;20377;-84
2021/09/30 12:27:08;;;;;;;1.93;1.10;;;23.40;54.00;;;;;;6295927;22;20899;-85
2021/09/30 12:29:48;;;;;;;1.33;1.00;;;23.40;54.00;;;;;;6295418;22;20348;-85
2021/09/30 12:32:18;;;;;;;2.50;1.40;;;23.40;54.00;;;;;;6268632;22;20742;-84
2021/09/30 12:34:55;;;;;;;1.57;1.17;;;23.40;54.10;;;;;;6295617;22;20349;-84
2021/09/30 12:37:28;;;;;;;1.53;1.23;;;23.50;54.10;;;;;;6266304;22;20780;-84
2021/09/30 12:40:43;;;;;;;3.23;1.00;;;23.50;54.10;;;;;;6267035;22;20388;-84
2021/09/30 12:43:18;;;;;;;1.63;1.10;;;23.50;54.10;;;;;;6201536;23;20394;-85
2021/09/30 12:46:05;;;;;;;2.27;1.30;;;23.50;54.10;;;;;;6175890;23;20382;-85
2021/09/30 12:48:48;;;;;;;1.80;1.10;;;23.40;54.10;;;;;;6200854;23;20368;-84
2021/09/30 12:51:26;;;;;;;2.17;1.40;;;23.40;54.10;;;;;;6199643;23;20445;-84
2021/09/30 12:53:56;;;;;;;1.67;1.00;;;23.40;54.10;;;;;;6175190;23;20464;-84
2021/09/30 12:56:41;;;;;;;2.37;1.20;;;23.40;54.10;;;;;;6175884;23;20381;-84
2021/09/30 12:59:25;;;;;;;1.57;1.20;;;23.50;54.10;;;;;;6175603;23;20382;-84
2021/09/30 13:08:42;;;;;;;1.40;0.97;;;23.40;54.10;;;;;;6140181;23;20363;-84
2021/09/30 13:15:32;;;;;;;2.37;1.10;;;23.40;54.20;;;;;;6140176;23;20388;-84
2021/09/30 13:18:33;;;;;;;2.20;1.37;;;23.40;54.20;;;;;;6116156;23;20437;-85
2021/09/30 13:28:26;;;;;;;1.73;1.20;;;23.40;54.30;;;;;;6140461;23;20384;-85
2021/09/30 13:38:01;;;;;;;2.23;1.07;;;23.40;54.40;;;;;;6110649;23;20443;-85
2021/09/30 13:40:39;;;;;;;1.40;1.00;;;23.40;54.40;;;;;;6110799;23;20377;-84
2021/09/30 13:43:05;;;;;;;1.83;1.00;;;23.40;54.50;;;;;;6111833;23;20382;-84
2021/09/30 13:45:35;;;;;;;2.07;1.10;;;23.40;54.40;;;;;;6111304;23;20441;-84
2021/09/30 13:48:02;;;;;;;1.83;1.37;;;23.40;54.40;;;;;;6112131;23;20445;-85
2021/09/30 13:50:33;;;;;;;1.50;1.20;;;23.40;54.40;;;;;;6097617;23;20521;-85
2021/09/30 13:53:11;;;;;;;1.67;1.00;;;23.40;54.30;;;;;;6032122;23;20435;-85
2021/09/30 13:55:45;;;;;;;1.50;1.07;;;23.40;54.30;;;;;;6031944;23;20463;-85
2021/09/30 13:58:11;;;;;;;1.60;1.10;;;23.40;54.30;;;;;;6032298;23;20384;-84
2021/09/30 14:00:39;;;;;;;1.43;1.00;;;23.40;54.30;;;;;;6032630;23;20384;-85
2021/09/30 14:03:08;;;;;;;1.23;1.03;;;23.40;54.30;;;;;;6055704;23;20383;-85
2021/09/30 14:06:24;;;;;;;2.00;1.03;;;23.40;54.30;;;;;;6170150;23;20382;-84
2021/09/30 14:09:16;;;;;;;1.83;1.20;;;23.50;54.40;;;;;;6091095;23;20386;-84
2021/09/30 14:12:05;;;;;;;1.53;1.07;;;23.50;54.40;;;;;;6060356;23;20485;-83
2021/09/30 14:14:36;;;;;;;2.23;1.00;;;23.50;54.40;;;;;;6104580;23;20369;-84
2021/09/30 14:17:05;;;;;;;1.50;0.90;;;23.50;54.40;;;;;;6114657;23;20482;-85
2021/09/30 14:20:26;;;;;;;1.83;1.10;;;23.60;54.50;;;;;;6115644;23;20374;-85
2021/09/30 14:22:54;;;;;;;2.47;1.23;;;23.60;54.40;;;;;;6088857;23;20393;-85
2021/09/30 14:25:20;;;;;;;1.70;1.30;;;23.60;54.40;;;;;;6090537;23;20390;-85
2021/09/30 14:27:46;;;;;;;1.47;1.03;;;23.60;54.40;;;;;;6090466;23;20449;-85
2021/09/30 14:30:14;;;;;;;1.93;1.20;;;23.60;54.40;;;;;;6089642;23;20801;-85
2021/09/30 14:36:11;;;;;;;2.30;1.33;;;23.70;54.40;;;;;;6115109;23;20856;-85
2021/09/30 14:38:51;;;;;;;1.63;1.17;;;23.70;54.50;;;;;;6083604;23;20378;-85
2021/09/30 14:41:17;;;;;;;1.20;1.00;;;23.70;54.50;;;;;;6091458;23;20385;-84
2021/09/30 14:43:47;;;;;;;1.60;0.90;;;23.70;54.50;;;;;;6114994;23;20459;-84
2021/09/30 14:46:14;;;;;;;1.53;1.17;;;23.70;54.50;;;;;;6098193;23;20161;-80
2021/09/30 14:52:17;;;;;;;2.30;1.30;;;23.80;54.60;;;;;;6086019;23;20490;-83
2021/09/30 14:54:48;;;;;;;4.13;1.50;;;23.80;54.60;;;;;;6084828;23;20386;-83
2021/09/30 14:57:26;;;;;;;3.80;0.93;;;23.80;54.60;;;;;;6060503;23;20382;-83
2021/09/30 15:00:36;;;;;;;2.20;1.00;;;23.80;54.60;;;;;;6061023;23;20371;-83
2021/09/30 15:03:08;;;;;;;3.00;1.20;;;23.80;54.50;;;;;;6062657;23;20383;-83
2021/09/30 15:05:36;;;;;;;2.07;0.97;;;23.80;54.60;;;;;;6156903;23;20384;-82
2021/09/30 15:11:25;;;;;;;2.40;1.20;;;23.80;54.50;;;;;;6201096;23;20474;-82
2021/09/30 15:13:53;;;;;;;2.10;1.23;;;23.80;54.50;;;;;;6176760;23;20450;-83
2021/09/30 15:16:20;;;;;;;4.07;1.13;;;23.80;54.60;;;;;;6201133;23;20371;-83
2021/09/30 15:21:20;;;;;;;5.23;1.33;;;23.80;54.50;;;;;;6201615;23;20383;-83
2021/09/30 15:23:50;;;;;;;1.90;0.90;;;23.80;54.50;;;;;;6201546;23;20418;-83
2021/09/30 15:26:16;;;;;;;2.73;1.73;;;23.80;54.50;;;;;;6201363;23;20390;-83
2021/09/30 15:28:46;;;;;;;1.93;1.10;;;23.80;54.50;;;;;;6241265;22;20403;-83
2021/09/30 15:32:04;;;;;;;2.47;1.13;;;23.80;54.50;;;;;;6268799;22;20447;-83
2021/09/30 15:34:42;;;;;;;1.67;0.90;;;23.80;54.40;;;;;;6143031;23;20380;-83
2021/09/30 15:37:09;;;;;;;2.90;1.43;;;23.80;54.50;;;;;;6117971;23;20409;-83
2021/09/30 15:39:40;;;;;;;1.90;0.87;;;23.80;54.60;;;;;;6117484;23;20685;-83
2021/09/30 15:42:13;;;;;;;1.70;1.00;;;23.80;54.50;;;;;;6118923;23;20385;-82
2021/09/30 15:44:45;;;;;;;2.37;1.10;;;23.80;54.50;;;;;;6188593;22;20380;-83
2021/09/30 15:54:11;;;;;;;;;;;;;;;;;;;;;
2021/09/30 15:56:39;;;;;;;2.10;1.00;;;23.80;54.60;;;;;;6143311;23;20790;-83
2021/09/30 15:59:21;;;;;;;2.17;0.80;;;23.80;54.60;;;;;;6119770;23;20358;-83
2021/09/30 16:01:49;;;;;;;1.80;1.20;;;23.80;54.60;;;;;;6143529;23;20361;-84
2021/09/30 16:05:06;;;;;;;;;;;;;;;;;;;;;
2021/09/30 16:07:52;;;;;;;1.43;0.90;;;23.80;54.60;;;;;;6143802;23;20389;-82
2021/09/30 16:10:32;;;;;;;;;;;;;;;;;;;;;
2021/09/30 16:13:07;;;;;;;1.07;0.77;;;23.80;54.60;;;;;;6144497;23;20434;-83
2021/09/30 16:15:35;;;;;;;1.10;0.90;;;23.80;54.60;;;;;;6118753;23;20407;-83
2021/09/30 16:25:14;;;;;;;1.90;1.30;;;23.80;54.60;;;;;;6172492;23;20487;-84
2021/09/30 16:27:42;;;;;;;1.17;0.83;;;23.80;54.70;;;;;;6148510;23;20420;-83
2021/09/30 16:30:10;;;;;;;1.27;0.93;;;23.80;54.60;;;;;;6125466;23;20461;-83
2021/09/30 16:32:36;;;;;;;1.70;0.90;;;23.80;54.60;;;;;;6174512;23;20427;-82
2021/09/30 16:35:06;;;;;;;1.30;0.87;;;23.80;54.60;;;;;;6174357;23;20400;-82
2021/09/30 16:37:35;;;;;;;2.77;0.83;;;23.90;54.60;;;;;;6149632;23;20411;-83
2021/09/30 16:40:02;;;;;;;2.10;0.87;;;23.80;54.60;;;;;;6150058;23;20388;-83
2021/09/30 16:42:42;;;;;;;2.87;1.23;;;23.90;54.60;;;;;;6149443;23;20411;-83
2021/09/30 16:45:08;;;;;;;1.30;0.90;;;23.90;54.50;;;;;;6174200;23;20376;-84
2021/09/30 16:47:36;;;;;;;2.23;0.83;;;23.90;54.60;;;;;;6173981;23;20384;-82
2021/09/30 16:50:10;;;;;;;2.73;1.13;;;23.90;54.60;;;;;;6149203;23;20396;-83
2021/09/30 16:52:47;;;;;;;2.03;1.10;;;23.90;54.60;;;;;;6147657;23;20447;-84
2021/09/30 16:55:18;;;;;;;1.30;1.10;;;23.90;54.50;;;;;;6221113;22;20426;-83
2021/09/30 16:57:45;;;;;;;2.30;1.00;;;23.90;54.60;;;;;;6269210;22;20372;-83
2021/09/30 17:00:13;;;;;;;1.10;0.70;;;23.80;54.50;;;;;;6270061;22;20368;-83
2021/09/30 17:02:42;;;;;;;1.70;1.00;;;23.80;54.50;;;;;;6295627;22;20377;-83
2021/09/30 17:05:10;;;;;;;1.30;1.07;;;23.80;54.50;;;;;;6295815;22;20364;-83
2021/09/30 17:08:01;;;;;;;1.53;0.90;;;23.80;54.50;;;;;;6268915;22;20369;-83
2021/09/30 17:10:53;;;;;;;1.70;0.90;;;23.80;54.50;;;;;;6277448;22;20411;-82
2021/09/30 17:13:19;;;;;;;1.83;1.00;;;23.80;54.50;;;;;;6272686;22;20392;-83
2021/09/30 17:15:47;;;;;;;1.57;1.10;;;23.80;54.60;;;;;;6300455;22;20372;-83
2021/09/30 17:18:18;;;;;;;2.03;0.97;;;23.80;54.50;;;;;;6300438;22;20145;-83
2021/09/30 17:20:44;;;;;;;1.30;0.87;;;23.80;54.50;;;;;;6299537;22;20375;-83
2021/09/30 17:23:32;;;;;;;2.70;1.00;;;23.80;54.50;;;;;;6272130;22;20380;-83
2021/09/30 17:25:58;;;;;;;1.30;1.10;;;23.80;54.50;;;;;;6299845;22;20371;-82
2021/09/30 17:28:24;;;;;;;2.00;0.87;;;23.80;54.50;;;;;;6299326;22;20369;-82